createdAt,value
2023-04-28T00:02:41.351Z,18.75
2023-04-28T00:05:15.656Z,18.50
2023-04-28T00:08:02.310Z,17.75
2023-04-28T00:10:37.421Z,19.40
2023-04-28T00:13:24.303Z,18.25
2023-04-28T00:16:04.327Z,20.00
2023-04-28T00:18:51.333Z,19.42
2023-04-28T00:21:31.275Z,19.05
2023-04-28T00:24:18.300Z,18.17
2023-04-28T00:26:51.436Z,20.45
2023-04-28T00:29:38.304Z,20.38
2023-04-28T00:32:18.301Z,18.90
2023-04-28T00:35:05.319Z,19.55
2023-04-28T00:37:50.301Z,18.35
2023-04-28T00:40:44.300Z,18.67
2023-04-28T00:43:24.311Z,18.55
2023-04-28T00:46:18.390Z,18.52
2023-04-28T00:49:05.330Z,19.20
2023-04-28T00:51:38.436Z,19.17
2023-04-28T00:54:25.264Z,19.40
2023-04-28T00:57:05.290Z,18.85
2023-04-28T00:59:52.343Z,18.15
2023-04-28T01:02:25.914Z,19.15
2023-04-28T01:05:12.302Z,18.33
2023-04-28T01:07:52.338Z,18.10
2023-04-28T01:10:39.292Z,17.73
2023-04-28T01:13:19.330Z,16.00
2023-04-28T01:16:13.385Z,18.55
2023-04-28T01:19:07.331Z,18.98
2023-04-28T01:21:54.384Z,18.55
2023-04-28T01:24:34.307Z,17.88
2023-04-28T01:27:30.306Z,17.58
2023-04-28T01:30:24.303Z,17.65
2023-04-28T01:33:18.302Z,19.73
2023-04-28T01:36:12.306Z,18.48
2023-04-28T01:38:59.331Z,17.50
2023-04-28T01:41:36.746Z,19.27
2023-04-28T01:44:23.330Z,17.35
2023-04-28T01:46:56.481Z,16.67
2023-04-28T01:49:43.337Z,18.20
2023-04-28T01:52:16.453Z,17.33
2023-04-28T01:55:03.324Z,17.58
2023-04-28T01:57:36.492Z,17.98
2023-04-28T02:00:23.331Z,17.80
2023-04-28T02:02:56.550Z,18.33
2023-04-28T02:05:44.320Z,17.35
2023-04-28T02:08:24.307Z,17.52
2023-04-28T02:11:18.315Z,17.77
2023-04-28T02:14:05.458Z,17.30
2023-04-28T02:16:39.444Z,18.17
2023-04-28T02:19:26.305Z,19.35
2023-04-28T02:21:59.427Z,18.15
2023-04-28T02:24:46.303Z,17.83
2023-04-28T02:27:19.446Z,17.92
2023-04-28T02:30:10.309Z,17.85
2023-04-28T02:32:43.497Z,18.25
2023-04-28T02:35:30.347Z,16.98
2023-04-28T02:38:06.589Z,17.80
2023-04-28T02:40:53.326Z,18.23
2023-04-28T02:43:26.495Z,18.83
2023-04-28T02:46:13.362Z,19.55
2023-04-28T02:48:46.453Z,17.50
2023-04-28T02:51:33.334Z,17.25
2023-04-28T02:54:06.439Z,18.48
2023-04-28T02:56:53.390Z,16.20
2023-04-28T02:59:34.353Z,17.30
2023-04-28T03:02:22.371Z,17.58
2023-04-28T03:04:55.641Z,17.10
2023-04-28T03:07:42.322Z,17.55
2023-04-28T03:10:24.338Z,17.27
2023-04-28T03:13:11.348Z,17.23
2023-04-28T03:15:51.361Z,17.00
2023-04-28T03:18:45.386Z,17.25
2023-04-28T03:21:39.348Z,18.10
2023-04-28T03:24:33.345Z,18.48
2023-04-28T03:27:20.320Z,18.45
2023-04-28T03:29:53.448Z,18.02
2023-04-28T03:32:40.408Z,18.10
2023-04-28T03:35:13.753Z,19.33
2023-04-28T03:38:00.337Z,18.45
2023-04-28T03:40:40.346Z,19.33
2023-04-28T03:43:27.335Z,19.50
2023-04-28T03:46:14.392Z,18.83
2023-04-28T03:49:11.382Z,17.10
2023-04-28T03:51:58.336Z,18.17
2023-04-28T03:54:31.476Z,19.38
2023-04-28T03:57:18.360Z,18.15
2023-04-28T03:59:52.100Z,18.00
2023-04-28T04:02:38.487Z,17.55
2023-04-28T04:05:19.443Z,17.73
2023-04-28T04:08:06.483Z,17.80
2023-04-28T04:10:39.434Z,19.48
2023-04-28T04:13:26.392Z,15.05
2023-04-28T04:15:59.573Z,17.05
2023-04-28T04:18:46.354Z,17.20
2023-04-28T04:21:19.457Z,18.20
2023-04-28T04:24:06.320Z,17.02
2023-04-28T04:26:39.544Z,18.08
2023-04-28T04:29:26.353Z,17.48
2023-04-28T04:32:06.366Z,17.70
2023-04-28T04:35:00.357Z,19.92
2023-04-28T04:37:54.332Z,18.00
2023-04-28T04:40:48.379Z,18.63
2023-04-28T04:43:42.350Z,17.67
2023-04-28T04:46:36.380Z,18.17
2023-04-28T04:49:23.375Z,16.52
2023-04-28T04:51:59.472Z,17.10
2023-04-28T04:54:46.375Z,17.00
2023-04-28T04:57:19.537Z,17.58
2023-04-28T05:00:06.372Z,17.13
2023-04-28T05:02:40.625Z,17.77
2023-04-28T05:05:27.452Z,18.40
2023-04-28T05:08:00.518Z,17.42
2023-04-28T05:10:47.365Z,18.63
2023-04-28T05:13:23.478Z,18.70
2023-04-28T05:16:10.442Z,18.48
2023-04-28T05:18:43.468Z,17.70
2023-04-28T05:21:30.412Z,17.15
2023-04-28T05:24:10.372Z,18.67
2023-04-28T05:26:58.381Z,17.50
2023-04-28T05:29:38.376Z,17.38
2023-04-28T05:32:32.449Z,17.42
2023-04-28T05:35:19.388Z,16.42
2023-04-28T05:37:52.523Z,17.25
2023-04-28T05:40:39.370Z,17.88
2023-04-28T05:43:19.387Z,17.27
2023-04-28T05:46:28.328Z,18.50
2023-04-28T05:49:23.380Z,19.35
2023-04-28T05:52:10.373Z,18.48
2023-04-28T05:54:43.516Z,19.50
2023-04-28T05:57:32.037Z,17.15
2023-04-28T06:00:09.490Z,19.17
2023-04-28T06:02:56.514Z,16.75
2023-04-28T06:05:29.778Z,18.35
2023-04-28T06:08:16.389Z,16.15
2023-04-28T06:10:49.531Z,18.00
2023-04-28T06:13:36.395Z,17.27
2023-04-28T06:16:10.532Z,17.35
2023-04-28T06:18:57.407Z,18.30
2023-04-28T06:21:38.378Z,20.40
2023-04-28T06:24:25.422Z,18.33
2023-04-28T06:27:05.415Z,18.90
2023-04-28T06:29:59.402Z,18.23
2023-04-28T06:32:46.460Z,17.58
2023-04-28T06:35:27.395Z,19.20
2023-04-28T06:38:21.396Z,18.58
2023-04-28T06:41:08.429Z,19.02
2023-04-28T06:43:41.640Z,16.08
2023-04-28T06:46:35.445Z,19.25
2023-04-28T06:49:29.413Z,20.58
2023-04-28T06:52:16.430Z,19.05
2023-04-28T06:54:56.413Z,17.00
2023-04-28T06:57:50.411Z,17.13
2023-04-28T07:00:37.570Z,16.70
2023-04-28T07:03:15.677Z,16.62
2023-04-28T07:06:02.425Z,15.00
2023-04-28T07:08:42.399Z,16.42
2023-04-28T07:11:30.501Z,17.02
2023-04-28T07:14:03.551Z,17.50
2023-04-28T07:16:50.531Z,14.90
2023-04-28T07:19:23.557Z,17.30
2023-04-28T07:22:10.456Z,15.73
2023-04-28T07:24:50.463Z,14.60
2023-04-28T07:27:44.420Z,14.15
2023-04-28T07:30:31.512Z,14.48
2023-04-28T07:33:11.587Z,13.32
2023-04-28T07:35:59.444Z,13.50
2023-04-28T07:38:33.112Z,14.05
2023-04-28T07:41:19.450Z,13.73
2023-04-28T07:43:59.450Z,11.82
2023-04-28T07:46:53.422Z,12.05
2023-04-28T07:49:47.471Z,12.05
2023-04-28T07:52:41.437Z,11.70
2023-04-28T07:55:28.440Z,13.77
2023-04-28T07:58:02.547Z,13.48
2023-04-28T08:00:49.423Z,13.15
2023-04-28T08:03:22.814Z,13.80
2023-04-28T08:06:09.561Z,11.60
2023-04-28T08:08:49.513Z,13.68
2023-04-28T08:11:36.569Z,13.20
2023-04-28T08:14:16.708Z,14.32
2023-04-28T08:17:03.482Z,13.05
2023-04-28T08:19:36.607Z,12.27
2023-04-28T08:22:23.467Z,14.15
2023-04-28T08:24:56.636Z,14.05
2023-04-28T08:27:46.523Z,14.48
2023-04-28T08:30:19.817Z,14.15
2023-04-28T08:33:07.495Z,12.98
2023-04-28T08:35:40.610Z,11.93
2023-04-28T08:38:29.460Z,14.38
2023-04-28T08:41:02.563Z,12.05
2023-04-28T08:43:49.467Z,15.32
2023-04-28T08:46:24.631Z,13.50
2023-04-28T08:49:15.480Z,14.38
2023-04-28T08:51:53.563Z,12.95
2023-04-28T08:54:42.489Z,13.82
2023-04-28T08:57:17.632Z,14.60
2023-04-28T09:00:05.488Z,12.95
2023-04-28T09:02:42.057Z,12.73
2023-04-28T09:05:29.683Z,11.40
2023-04-28T09:08:02.659Z,13.05
2023-04-28T09:10:49.486Z,13.20
2023-04-28T09:13:33.343Z,11.20
2023-04-28T09:16:20.554Z,11.75
2023-04-28T09:19:03.612Z,11.90
2023-04-28T09:22:07.764Z,12.52
2023-04-28T09:24:47.564Z,12.20
2023-04-28T09:27:35.504Z,12.30
2023-04-28T09:30:16.497Z,11.82
2023-04-28T09:33:19.570Z,12.05
2023-04-28T09:36:06.479Z,11.45
2023-04-28T09:38:57.527Z,12.15
2023-04-28T09:41:58.485Z,11.00
2023-04-28T09:44:45.498Z,12.10
2023-04-28T09:47:34.544Z,12.60
2023-04-28T09:50:30.529Z,12.10
2023-04-28T09:53:29.519Z,11.27
2023-04-28T09:56:26.506Z,11.50
2023-04-28T09:59:13.510Z,10.90
2023-04-28T10:01:47.701Z,11.18
2023-04-28T10:04:37.657Z,13.18
2023-04-28T10:07:11.224Z,11.27
2023-04-28T10:09:58.504Z,11.25
2023-04-28T10:12:39.110Z,10.65
2023-04-28T10:15:25.616Z,11.57
2023-04-28T10:18:00.708Z,11.80
2023-04-28T10:20:53.522Z,12.60
2023-04-28T10:23:51.934Z,12.30
2023-04-28T10:27:00.532Z,11.60
2023-04-28T10:29:34.714Z,11.55
2023-04-28T10:32:30.548Z,9.98
2023-04-28T10:35:28.648Z,11.90
2023-04-28T10:38:23.566Z,11.68
2023-04-28T10:41:09.564Z,10.98
2023-04-28T10:44:03.552Z,11.32
2023-04-28T10:47:15.536Z,12.77
2023-04-28T10:50:09.554Z,11.13
2023-04-28T10:52:57.536Z,10.80
2023-04-28T10:55:39.936Z,11.80
2023-04-28T10:58:26.555Z,10.57
2023-04-28T11:00:59.674Z,10.18
2023-04-28T11:04:05.861Z,10.43
2023-04-28T11:06:42.701Z,10.82
2023-04-28T11:09:38.557Z,10.27
2023-04-28T11:12:13.511Z,10.32
2023-04-28T11:15:00.553Z,11.88
2023-04-28T11:17:54.607Z,10.95
2023-04-28T11:20:49.551Z,10.45
2023-04-28T11:23:36.609Z,10.88
2023-04-28T11:26:09.701Z,11.57
2023-04-28T11:29:02.562Z,10.85
2023-04-28T11:31:35.802Z,11.73
2023-04-28T11:34:27.558Z,12.20
2023-04-28T11:37:00.825Z,12.05
2023-04-28T11:39:47.558Z,11.68
2023-04-28T11:42:27.603Z,11.82
2023-04-28T11:45:26.562Z,11.88
2023-04-28T11:48:35.583Z,10.20
2023-04-28T11:51:51.573Z,11.18
2023-04-28T11:54:38.577Z,12.48
2023-04-28T11:57:12.752Z,10.93
2023-04-28T11:59:59.574Z,12.45
2023-04-28T12:02:38.615Z,10.57
2023-04-28T12:05:28.631Z,11.20
2023-04-28T12:08:08.563Z,12.00
2023-04-28T12:11:20.354Z,11.25
2023-04-28T12:14:17.575Z,11.00
2023-04-28T12:17:11.606Z,10.20
2023-04-28T12:20:01.608Z,10.35
2023-04-28T12:22:35.794Z,10.38
2023-04-28T12:25:24.600Z,9.65
2023-04-28T12:28:15.324Z,10.90
2023-04-28T12:31:11.620Z,11.57
2023-04-28T12:33:44.958Z,11.90
2023-04-28T12:36:31.620Z,10.50
2023-04-28T12:39:11.613Z,10.65
2023-04-28T12:42:06.728Z,13.10
2023-04-28T12:45:00.605Z,11.75
2023-04-28T12:47:54.624Z,10.68
2023-04-28T12:50:48.610Z,11.60
2023-04-28T12:53:42.648Z,10.95
2023-04-28T12:56:30.630Z,12.45
2023-04-28T12:59:11.600Z,12.43
2023-04-28T13:02:05.645Z,12.13
2023-04-28T13:04:55.786Z,12.43
2023-04-28T13:07:35.613Z,11.93
2023-04-28T13:10:30.618Z,13.77
2023-04-28T13:13:24.643Z,12.52
2023-04-28T13:16:12.683Z,11.73
2023-04-28T13:18:45.759Z,12.63
2023-04-28T13:21:33.636Z,12.50
2023-04-28T13:24:13.632Z,12.52
2023-04-28T13:27:02.656Z,11.75
2023-04-28T13:29:43.630Z,11.77
2023-04-28T13:32:30.649Z,12.40
2023-04-28T13:35:10.635Z,12.48
2023-04-28T13:38:02.661Z,12.38
2023-04-28T13:40:42.647Z,11.85
2023-04-28T13:43:29.623Z,11.50
2023-04-28T13:46:14.684Z,10.85
2023-04-28T13:49:08.641Z,11.27
2023-04-28T13:51:55.622Z,10.45
2023-04-28T13:54:28.908Z,13.50
2023-04-28T13:57:15.655Z,11.90
2023-04-28T13:59:48.817Z,11.27
2023-04-28T14:02:36.575Z,10.85
2023-04-28T14:05:16.630Z,11.25
2023-04-28T14:08:03.659Z,11.88
2023-04-28T14:10:36.746Z,11.00
2023-04-28T14:13:24.689Z,11.23
2023-04-28T14:15:59.781Z,11.13
2023-04-28T14:18:46.670Z,11.90
2023-04-28T14:21:19.852Z,11.23
2023-04-28T14:24:06.661Z,10.43
2023-04-28T14:26:39.950Z,11.32
2023-04-28T14:29:26.640Z,11.57
2023-04-28T14:32:06.665Z,11.13
2023-04-28T14:35:03.653Z,12.55
2023-04-28T14:37:57.682Z,11.50
2023-04-28T14:40:51.663Z,13.02
2023-04-28T14:43:38.682Z,10.35
2023-04-28T14:46:11.939Z,10.73
2023-04-28T14:49:05.691Z,10.38
2023-04-28T14:51:59.667Z,12.52
2023-04-28T14:54:46.761Z,12.93
2023-04-28T14:57:20.322Z,11.30
2023-04-28T15:00:06.649Z,10.88
2023-04-28T15:02:47.787Z,11.57
2023-04-28T15:05:41.693Z,10.98
2023-04-28T15:08:30.024Z,12.20
2023-04-28T15:11:06.735Z,11.25
2023-04-28T15:13:53.695Z,12.30
2023-04-28T15:16:28.841Z,11.77
2023-04-28T15:19:15.714Z,11.80
2023-04-28T15:21:48.818Z,13.50
2023-04-28T15:24:35.680Z,11.65
2023-04-28T15:27:09.098Z,11.95
2023-04-28T15:29:57.767Z,12.75
2023-04-28T15:32:32.571Z,12.68
2023-04-28T15:35:19.722Z,12.82
2023-04-28T15:37:55.548Z,12.73
2023-04-28T15:40:42.684Z,13.02
2023-04-28T15:43:22.713Z,13.55
2023-04-28T15:46:23.780Z,12.73
2023-04-28T15:49:17.695Z,12.90
2023-04-28T15:52:11.701Z,11.80
2023-04-28T15:54:58.707Z,12.95
2023-04-28T15:57:31.896Z,12.60
2023-04-28T16:00:21.701Z,13.02
2023-04-28T16:02:55.109Z,13.80
2023-04-28T16:05:41.705Z,13.23
2023-04-28T16:08:16.755Z,12.43
2023-04-28T16:11:03.704Z,12.40
2023-04-28T16:13:43.821Z,13.30
2023-04-28T16:16:31.780Z,10.90
2023-04-28T16:19:04.832Z,10.75
2023-04-28T16:21:51.706Z,11.00
2023-04-28T16:24:25.219Z,11.20
2023-04-28T16:27:12.724Z,10.68
2023-04-28T16:29:46.102Z,10.40
2023-04-28T16:32:33.855Z,10.85
2023-04-28T16:35:11.202Z,10.85
2023-04-28T16:37:51.838Z,10.93
2023-04-28T16:40:31.920Z,12.45
2023-04-28T16:43:11.740Z,10.55
2023-04-28T16:45:52.001Z,11.57
2023-04-28T16:48:38.731Z,11.25
2023-04-28T16:51:18.732Z,10.65
2023-04-28T16:54:12.828Z,10.40
2023-04-28T16:57:06.735Z,11.32
2023-04-28T17:00:00.726Z,11.82
2023-04-28T17:02:47.864Z,11.00
2023-04-28T17:05:21.252Z,10.80
2023-04-28T17:08:07.760Z,10.07
2023-04-28T17:10:43.952Z,11.65
2023-04-28T17:13:30.720Z,11.98
2023-04-28T17:16:10.804Z,11.80
2023-04-28T17:19:05.423Z,11.98
2023-04-28T17:21:52.827Z,13.27
2023-04-28T17:24:26.068Z,11.40
2023-04-28T17:27:12.758Z,12.02
2023-04-28T17:29:53.347Z,12.05
2023-04-28T17:32:39.746Z,17.23
2023-04-28T17:35:21.802Z,17.13
2023-04-28T17:38:15.768Z,13.63
2023-04-28T17:41:02.860Z,13.60
2023-04-28T17:43:37.711Z,14.38
2023-04-28T17:46:24.813Z,11.50
2023-04-28T17:49:05.761Z,13.07
2023-04-28T17:51:59.758Z,12.32
2023-04-28T17:54:53.774Z,12.65
2023-04-28T17:57:40.757Z,12.20
2023-04-28T18:00:15.062Z,12.27
2023-04-28T18:03:02.793Z,12.63
2023-04-28T18:05:42.749Z,12.43
2023-04-28T18:08:36.957Z,12.48
2023-04-28T18:11:30.833Z,11.93
2023-04-28T18:14:17.770Z,11.18
2023-04-28T18:16:51.332Z,11.48
2023-04-28T18:19:37.802Z,14.55
2023-04-28T18:22:10.962Z,16.02
2023-04-28T18:24:57.773Z,15.70
2023-04-28T18:27:37.789Z,14.40
2023-04-28T18:30:24.773Z,13.65
2023-04-28T18:32:58.297Z,13.63
2023-04-28T18:35:46.731Z,13.15
2023-04-28T18:38:20.409Z,14.57
2023-04-28T18:41:08.828Z,14.50
2023-04-28T18:43:42.391Z,15.85
2023-04-28T18:46:28.919Z,15.30
2023-04-28T18:49:06.589Z,16.25
2023-04-28T18:51:53.863Z,13.82
2023-04-28T18:54:28.408Z,13.27
2023-04-28T18:57:15.780Z,14.13
2023-04-28T18:59:55.788Z,16.13
2023-04-28T19:02:49.946Z,14.30
2023-04-28T19:05:36.840Z,21.05
2023-04-28T19:08:17.811Z,16.88
2023-04-28T19:11:12.833Z,16.42
2023-04-28T19:14:01.793Z,15.23
2023-04-28T19:16:36.829Z,14.05
2023-04-28T19:19:23.813Z,16.63
2023-04-28T19:21:58.001Z,17.90
2023-04-28T19:24:44.831Z,17.85
2023-04-28T19:27:17.964Z,17.20
2023-04-28T19:30:08.855Z,22.60
2023-04-28T19:32:43.033Z,19.77
2023-04-28T19:35:29.843Z,17.63
2023-04-28T19:38:03.961Z,21.17
2023-04-28T19:40:51.805Z,22.05
2023-04-28T19:43:24.971Z,15.68
2023-04-28T19:46:11.941Z,17.60
2023-04-28T19:48:46.610Z,15.50
2023-04-28T19:51:34.836Z,16.58
2023-04-28T19:54:07.953Z,17.58
2023-04-28T19:56:55.808Z,17.30
2023-04-28T19:59:30.057Z,17.80
2023-04-28T20:02:16.895Z,17.80
2023-04-28T20:04:56.868Z,16.83
2023-04-28T20:07:56.220Z,22.08
2023-04-28T20:10:42.844Z,22.20
2023-04-28T20:13:17.954Z,23.75
2023-04-28T20:16:04.848Z,21.65
2023-04-28T20:18:38.239Z,21.85
2023-04-28T20:21:24.838Z,20.40
2023-04-28T20:24:04.840Z,24.35
2023-04-28T20:26:51.880Z,19.30
2023-04-28T20:29:25.306Z,20.27
2023-04-28T20:32:11.878Z,19.40
2023-04-28T20:34:45.041Z,20.05
2023-04-28T20:37:32.843Z,20.25
2023-04-28T20:40:06.722Z,18.73
2023-04-28T20:42:53.862Z,19.17
2023-04-28T20:45:41.896Z,22.15
2023-04-28T20:48:36.839Z,22.85
2023-04-28T20:51:23.942Z,25.20
2023-04-28T20:53:57.728Z,23.77
2023-04-28T20:56:44.861Z,22.05
2023-04-28T20:59:25.922Z,21.98
2023-04-28T21:02:19.978Z,21.95
2023-04-28T21:05:06.857Z,21.52
2023-04-28T21:07:39.971Z,22.00
2023-04-28T21:10:26.868Z,22.45
2023-04-28T21:12:59.970Z,21.63
2023-04-28T21:15:47.946Z,21.67
2023-04-28T21:18:21.084Z,22.92
2023-04-28T21:21:07.868Z,21.35
2023-04-28T21:23:41.061Z,20.52
2023-04-28T21:26:28.874Z,22.98
2023-04-28T21:29:02.161Z,20.95
2023-04-28T21:31:48.976Z,21.23
2023-04-28T21:34:21.998Z,22.75
2023-04-28T21:37:08.862Z,23.00
2023-04-28T21:39:42.035Z,23.95
2023-04-28T21:42:28.943Z,23.10
2023-04-28T21:45:08.861Z,19.50
2023-04-28T21:48:04.000Z,20.85
2023-04-28T21:50:57.871Z,21.08
2023-04-28T21:53:51.872Z,20.20
2023-04-28T21:56:38.872Z,19.88
2023-04-28T21:59:11.973Z,18.55
2023-04-28T22:01:58.876Z,18.10
2023-04-28T22:04:35.528Z,18.70
2023-04-28T22:07:21.929Z,19.30
2023-04-28T22:09:57.036Z,18.98
2023-04-28T22:12:43.870Z,19.70
2023-04-28T22:15:17.023Z,18.77
2023-04-28T22:18:04.918Z,16.77
2023-04-28T22:20:44.935Z,19.08
2023-04-28T22:23:38.942Z,21.67
2023-04-28T22:26:26.844Z,20.17
2023-04-28T22:29:00.284Z,21.00
2023-04-28T22:31:46.912Z,20.50
2023-04-28T22:34:20.012Z,19.63
2023-04-28T22:37:06.938Z,17.73
2023-04-28T22:39:42.759Z,18.27
2023-04-28T22:42:29.916Z,18.63
2023-04-28T22:45:04.432Z,18.58
2023-04-28T22:47:50.951Z,19.20
2023-04-28T22:50:30.869Z,20.15
2023-04-28T22:53:25.936Z,19.90
2023-04-28T22:56:19.920Z,18.85
2023-04-28T22:59:13.920Z,19.80
2023-04-28T23:02:01.010Z,18.85
2023-04-28T23:04:34.580Z,17.77
2023-04-28T23:07:21.914Z,18.38
2023-04-28T23:09:55.037Z,19.33
2023-04-28T23:12:41.919Z,17.42
2023-04-28T23:15:17.081Z,16.73
2023-04-28T23:18:03.950Z,17.88
2023-04-28T23:20:40.047Z,17.05
2023-04-28T23:23:26.954Z,16.38
2023-04-28T23:26:00.327Z,16.70
2023-04-28T23:28:46.946Z,16.17
2023-04-28T23:31:27.009Z,16.85
2023-04-28T23:34:13.920Z,17.30
2023-04-28T23:36:47.100Z,15.70
2023-04-28T23:39:36.941Z,16.30
2023-04-28T23:42:16.945Z,16.60
2023-04-28T23:45:10.990Z,16.27
2023-04-28T23:47:57.958Z,17.40
2023-04-28T23:50:31.046Z,18.50
2023-04-28T23:53:17.927Z,16.60
2023-04-28T23:55:51.032Z,18.25
2023-04-28T23:58:37.976Z,18.42
